Flight Track Log - Related Links

Times and Time Zones

All times are in EDT time to prevent confusion due to time zone crossing. See the EGF3796 flight status page for this flight to view local times or setup timezone preferences in your user account.

Time Position Orientation Groundspeed Altitude Reporting Facility
EDT Latitude Longitude Course Direction KTS MPH feet Rate Location/Type
Wed 06:30:59 PM 41.9167 -87.9333 201° Southwest 190 219 3,700  Level Chicago TRACON
Wed 06:31:59 PM 41.8500 -87.9667 200° South 267 307 5,000 1,366 Climbing Chicago TRACON
Wed 06:32:00 PM 41.7170 -88.0183 203° Southwest  Level FlightAware Approximate
Wed 06:32:40 PM 41.8181 -87.9606 172° South 251 289 6,000  Level Chicago Center
Wed 06:33:00 PM 41.6319 -88.0657 203° Southwest  Level FlightAware Approximate
Wed 06:33:42 PM 41.7286 -87.9811 190° South 277 319 10,100  Level Chicago Center
Wed 06:34:00 PM 41.5448 -88.1055 197° South  Level FlightAware Approximate
Wed 06:34:44 PM 41.6586 -88.0242 205° Southwest 278 320 13,200  Level Chicago Center
Wed 06:35:00 PM 41.4565 -88.1408 197° South  Level FlightAware Approximate
Wed 06:35:46 PM 41.5836 -88.0708 205° Southwest 296 341 15,100  Level Chicago Center
Wed 06:36:00 PM 41.3632 -88.1767 201° Southwest  Level FlightAware Approximate
Wed 06:36:48 PM 41.4958 -88.1264 205° Southwest 355 409 16,300  Level Chicago Center
Wed 06:37:50 PM 41.3783 -88.1922 203° Southwest 399 459 18,000 1,790 Climbing Chicago Center
Wed 06:38:52 PM 41.2717 -88.2406 199° South 412 474 20,000 1,935 Climbing Chicago Center
Wed 06:39:54 PM 41.1647 -88.2889 199° South 410 472 22,000 1,790 Climbing Chicago Center
Wed 06:40:56 PM 41.0564 -88.3381 199° South 413 475 23,700 1,790 Climbing Chicago Center
Wed 06:41:58 PM 40.9261 -88.3953 198° South 413 475 25,700 1,790 Climbing Chicago Center
Wed 06:43:00 PM 40.8178 -88.4431 198° South 413 475 27,400 1,632 Climbing Chicago Center
Wed 06:44:03 PM 40.7111 -88.4917 199° South 409 471 29,100 1,536 Climbing Chicago Center
Wed 06:45:05 PM 40.6169 -88.5572 208° Southwest 391 450 30,600 1,210 Climbing Chicago Center
Wed 06:46:07 PM 40.5383 -88.6458 221° Southwest 375 432 31,600 968 Climbing Chicago Center
Wed 06:47:09 PM 40.4550 -88.7408 221° Southwest 384 442 32,600 1,065 Climbing Chicago Center
Wed 06:48:11 PM 40.3564 -88.8500 220° Southwest 385 443 33,800 677 Climbing Chicago Center
Wed 06:49:13 PM 40.2750 -88.9422 221° Southwest 385 443 34,000 97 Climbing Chicago Center
Wed 06:50:15 PM 40.1931 -89.0325 220° Southwest 384 442 34,000  Level Chicago Center
Wed 06:51:17 PM 40.1100 -89.1247 220° Southwest 387 445 34,000  Level Chicago Center
Wed 06:52:10 PM 40.0447 -89.1978 221° Southwest 383 441 34,000  Level Kansas City Center
Wed 06:53:14 PM 39.9636 -89.2864 220° Southwest 381 438 34,000  Level Kansas City Center
Wed 06:54:14 PM 39.8775 -89.4056 227° Southwest 376 433 34,000  Level Kansas City Center
Wed 06:55:16 PM 39.8064 -89.5044 227° Southwest 374 430 34,000  Level Kansas City Center
Wed 06:56:19 PM 39.7350 -89.6031 227° Southwest 374 430 34,000  Level Kansas City Center
Wed 06:57:19 PM 39.6606 -89.7064 227° Southwest 371 427 34,000  Level Kansas City Center
Wed 06:58:23 PM 39.5900 -89.8039 227° Southwest 371 427 34,000  Level Kansas City Center
Wed 06:59:23 PM 39.5200 -89.8989 226° Southwest 367 422 34,000  Level Kansas City Center
Wed 07:00:28 PM 39.4511 -89.9944 227° Southwest 366 421 34,000  Level Kansas City Center
Wed 07:01:29 PM 39.3819 -90.0894 227° Southwest 365 420 34,000  Level Kansas City Center
Wed 07:02:29 PM 39.2989 -90.2025 227° Southwest 363 418 34,000  Level Kansas City Center
Wed 07:03:33 PM 39.2317 -90.2958 227° Southwest 360 414 34,000  Level Kansas City Center
Wed 07:04:34 PM 39.1628 -90.3878 226° Southwest 359 413 34,000  Level Kansas City Center
Wed 07:05:38 PM 39.0967 -90.4783 227° Southwest 354 407 34,000  Level Kansas City Center
Wed 07:06:39 PM 39.0297 -90.5683 226° Southwest 352 405 34,000  Level Kansas City Center
Wed 07:07:40 PM 38.9500 -90.6750 226° Southwest 349 402 34,000  Level Kansas City Center
Wed 07:08:44 PM 38.8844 -90.7633 226° Southwest 344 396 34,000  Level Kansas City Center
Wed 07:09:45 PM 38.8183 -90.8503 226° Southwest 346 398 34,000  Level Kansas City Center
Wed 07:10:46 PM 38.7528 -90.9367 226° Southwest 344 396 34,000  Level Kansas City Center
Wed 07:11:49 PM 38.6886 -91.0225 226° Southwest 340 391 34,000  Level Kansas City Center
Wed 07:12:50 PM 38.6100 -91.1283 226° Southwest 346 398 34,000  Level Kansas City Center
Wed 07:13:53 PM 38.5428 -91.2150 225° Southwest 346 398 34,000  Level Kansas City Center
Wed 07:14:55 PM 38.4756 -91.3019 225° Southwest 346 398 34,000  Level Kansas City Center
Wed 07:15:56 PM 38.4044 -91.3953 226° Southwest 347 399 34,000 -48 Level Kansas City Center
Wed 07:17:00 PM 38.3361 -91.4842 226° Southwest 349 402 33,900 -532 Descending Kansas City Center
Wed 07:18:00 PM 38.2678 -91.5744 226° Southwest 352 405 32,900 -976 Descending Kansas City Center
Wed 07:19:03 PM 38.1978 -91.6656 226° Southwest 358 412 31,900 -968 Descending Kansas City Center
Wed 07:20:04 PM 38.1297 -91.7528 225° Southwest 349 402 30,900 -1,056 Descending Kansas City Center
Wed 07:21:08 PM 38.0492 -91.8583 226° Southwest 344 396 29,700 -1,056 Descending Kansas City Center
Wed 07:22:09 PM 37.9778 -91.9472 224° Southwest 352 405 28,700 -968 Descending Kansas City Center
Wed 07:23:12 PM 37.9072 -92.0392 226° Southwest 359 413 27,700 -912 Descending Kansas City Center
Wed 07:24:14 PM 37.8436 -92.1189 225° Southwest 365 420 26,800 -1,033 Descending Kansas City Center
Wed 07:25:14 PM 37.7553 -92.2325 225° Southwest 375 432 25,600 -1,065 Descending Kansas City Center
Wed 07:26:18 PM 37.6806 -92.3275 225° Southwest 381 438 24,600 -905 Descending Kansas City Center
Wed 07:27:20 PM 37.6081 -92.4200 225° Southwest 376 433 23,700 -934 Descending Kansas City Center
Wed 07:28:20 PM 37.5342 -92.5136 225° Southwest 374 430 22,700 -871 Descending Kansas City Center
Wed 07:29:24 PM 37.4625 -92.6047 225° Southwest 370 426 21,900 -864 Descending Kansas City Center
Wed 07:30:25 PM 37.3906 -92.6947 225° Southwest 366 421 20,900 -984 Descending Kansas City Center
Wed 07:31:26 PM 37.3069 -92.7989 225° Southwest 354 407 19,900 -912 Descending Kansas City Center
Wed 07:32:30 PM 37.2361 -92.8858 224° Southwest 353 406 19,000 -912 Descending Kansas City Center
Wed 07:33:31 PM 37.1639 -92.9750 225° Southwest 359 413 18,000 -774 Descending Kansas City Center
Wed 07:34:34 PM 37.0942 -93.0625 225° Southwest 356 410 17,400 -720 Descending Kansas City Center
Wed 07:35:36 PM 37.0231 -93.1503 225° Southwest 356 410 16,500 -885 Descending Kansas City Center
Wed 07:36:36 PM 36.9522 -93.2383 225° Southwest 358 412 15,600 -871 Descending Kansas City Center
Wed 07:37:40 PM 36.8828 -93.3261 225° Southwest 356 410 14,700 -864 Descending Kansas City Center
Wed 07:38:41 PM 36.8114 -93.4133 224° Southwest 357 411 13,800 -1,328 Descending Kansas City Center
Wed 07:39:42 PM 36.7269 -93.5203 225° Southwest 361 415 12,000 -1,525 Descending Kansas City Center
Wed 07:40:43 PM 36.6561 -93.6103 226° Southwest 363 418 10,700 -919 Descending Kansas City Center
Wed 07:41:46 PM 36.5925 -93.6953 227° Southwest 348 400 10,100 -774 Descending Kansas City Center
Wed 07:42:47 PM 36.5453 -93.7614 228° Southwest 277 319 9,100 -960 Descending Kansas City Center
Wed 07:43:51 PM 36.4931 -93.8411 231° Southwest 268 308 8,100 -1,008 Descending Kansas City Center
Wed 07:44:52 PM 36.4722 -93.9292 254° West 268 308 7,000 -1,033 Descending Kansas City Center
Wed 07:45:53 PM 36.4519 -94.0158 254° West 263 303 6,000 -492 Descending Kansas City Center
Wed 07:46:54 PM 36.4306 -94.1031 253° West 262 302 6,000  Level Kansas City Center

Login

Don't have an account? Register now (free) for customized features, flight alerts, and more!